createdAt,value
2022-08-04T00:01:41.410Z,101059.38
2022-08-04T00:04:46.358Z,101069.78
2022-08-04T00:07:18.871Z,101064.59
2022-08-04T00:09:53.274Z,101057.06
2022-08-04T00:12:29.411Z,101058.56
2022-08-04T00:15:00.672Z,101062.13
2022-08-04T00:17:40.217Z,101058.56
2022-08-04T00:20:09.246Z,101057.78
2022-08-04T00:22:38.758Z,101066.34
2022-08-04T00:25:05.809Z,101056.63
2022-08-04T00:27:33.248Z,101060.13
2022-08-04T00:30:04.000Z,101055.78
2022-08-04T00:32:33.737Z,101060.13
2022-08-04T00:35:01.243Z,101057.50
2022-08-04T00:37:28.214Z,101061.00
2022-08-04T00:39:55.565Z,101058.69
2022-08-04T00:42:58.149Z,101054.34
2022-08-04T00:46:12.555Z,101058.19
2022-08-04T00:48:55.678Z,101053.34
2022-08-04T00:51:41.907Z,101048.78
2022-08-04T00:54:17.953Z,101048.19
2022-08-04T00:57:34.697Z,101043.72
2022-08-04T01:00:19.620Z,101043.41
2022-08-04T01:03:07.194Z,101041.94
2022-08-04T01:05:52.992Z,101037.22
2022-08-04T01:08:28.266Z,101043.28
2022-08-04T01:11:09.660Z,101040.22
2022-08-04T01:13:42.137Z,101038.50
2022-08-04T01:16:11.316Z,101035.88
2022-08-04T01:18:55.550Z,101035.34
2022-08-04T01:21:34.133Z,101037.91
2022-08-04T01:24:25.932Z,101040.88
2022-08-04T01:27:06.109Z,101034.63
2022-08-04T01:29:47.334Z,101035.09
2022-08-04T01:32:21.003Z,101029.44
2022-08-04T01:34:59.706Z,101028.22
2022-08-04T01:37:50.927Z,101020.56
2022-08-04T01:40:18.140Z,101021.06
2022-08-04T01:42:47.683Z,101023.75
2022-08-04T01:45:15.095Z,101026.06
2022-08-04T01:47:53.094Z,101023.53
2022-08-04T01:50:21.228Z,101018.19
2022-08-04T01:52:51.111Z,101019.03
2022-08-04T01:55:19.164Z,101017.97
2022-08-04T01:57:51.616Z,101018.97
2022-08-04T02:00:29.043Z,101011.97
2022-08-04T02:02:57.141Z,101017.72
2022-08-04T02:06:03.889Z,101015.31
2022-08-04T02:08:19.228Z,101007.88
2022-08-04T02:11:20.257Z,101011.81
2022-08-04T02:14:08.370Z,101000.75
2022-08-04T02:16:44.595Z,101000.75
2022-08-04T02:19:35.350Z,101002.53
2022-08-04T02:22:12.833Z,101007.66
2022-08-04T02:24:46.487Z,101009.22
2022-08-04T02:27:14.870Z,100999.72
2022-08-04T02:29:58.449Z,100999.22
2022-08-04T02:32:30.697Z,101005.69
2022-08-04T02:35:06.255Z,100989.41
2022-08-04T02:37:33.436Z,101003.56
2022-08-04T02:40:03.980Z,101004.53
2022-08-04T02:42:32.576Z,101003.84
2022-08-04T02:45:01.310Z,100995.84
2022-08-04T02:48:30.557Z,100992.63
2022-08-04T02:50:28.658Z,100995.69
2022-08-04T02:52:58.698Z,100993.66
2022-08-04T02:55:27.222Z,100998.47
2022-08-04T02:57:54.731Z,100990.41
2022-08-04T03:00:21.745Z,100989.94
2022-08-04T03:03:08.542Z,100990.25
2022-08-04T03:06:11.239Z,100994.69
2022-08-04T03:08:56.173Z,101004.78
2022-08-04T03:11:41.517Z,100992.31
2022-08-04T03:14:45.604Z,100991.34
2022-08-04T03:17:30.769Z,100990.50
2022-08-04T03:20:34.877Z,101001.44
2022-08-04T03:23:16.427Z,100994.16
2022-08-04T03:26:04.383Z,100996.97
2022-08-04T03:29:08.502Z,100992.53
2022-08-04T03:32:25.519Z,100996.88
2022-08-04T03:35:23.057Z,100996.38
2022-08-04T03:37:58.684Z,100993.59
2022-08-04T03:40:55.977Z,100987.75
2022-08-04T03:43:57.921Z,100992.69
2022-08-04T03:46:47.695Z,100987.00
2022-08-04T03:49:51.754Z,100993.59
2022-08-04T03:52:55.510Z,100992.59
2022-08-04T03:55:40.130Z,100990.44
2022-08-04T03:58:44.021Z,100992.28
2022-08-04T04:02:02.208Z,100987.50
2022-08-04T04:04:50.380Z,100989.06
2022-08-04T04:07:36.172Z,100981.13
2022-08-04T04:10:40.464Z,100992.59
2022-08-04T04:13:38.274Z,100983.13
2022-08-04T04:16:26.007Z,100988.06
2022-08-04T04:18:52.331Z,100989.00
2022-08-04T04:21:24.874Z,100987.28
2022-08-04T04:24:10.769Z,100989.66
2022-08-04T04:26:59.176Z,100985.47
2022-08-04T04:29:35.307Z,100980.25
2022-08-04T04:32:11.497Z,100979.47
2022-08-04T04:34:57.615Z,100979.88
2022-08-04T04:37:35.664Z,100979.59
2022-08-04T04:40:36.032Z,100974.19
2022-08-04T04:43:51.580Z,100975.63
2022-08-04T04:47:00.987Z,100975.31
2022-08-04T04:49:59.808Z,100980.53
2022-08-04T04:52:42.107Z,100974.06
2022-08-04T04:55:22.596Z,100973.13
2022-08-04T04:57:54.715Z,100971.81
2022-08-04T05:00:24.984Z,100975.28
2022-08-04T05:03:21.107Z,100971.31
2022-08-04T05:05:53.241Z,100968.47
2022-08-04T05:08:42.825Z,100961.78
2022-08-04T05:11:36.836Z,100956.72
2022-08-04T05:14:35.578Z,100949.16
2022-08-04T05:17:10.766Z,100950.56
2022-08-04T05:19:55.687Z,100943.47
2022-08-04T05:22:37.384Z,100939.59
2022-08-04T05:25:08.490Z,100933.03
2022-08-04T05:27:45.491Z,100937.88
2022-08-04T05:30:12.942Z,100937.63
2022-08-04T05:32:47.927Z,100937.44
2022-08-04T05:35:52.111Z,100928.81
2022-08-04T05:38:23.346Z,100925.63
2022-08-04T05:40:51.050Z,100927.81
2022-08-04T05:43:18.138Z,100932.09
2022-08-04T05:45:48.168Z,100921.22
2022-08-04T05:48:15.048Z,100925.25
2022-08-04T05:50:42.058Z,100917.91
2022-08-04T05:53:11.331Z,100923.22
2022-08-04T05:55:48.849Z,100913.91
2022-08-04T05:58:25.240Z,100908.16
2022-08-04T06:00:53.391Z,100907.75
2022-08-04T06:03:22.772Z,100905.69
2022-08-04T06:05:50.143Z,100908.84
2022-08-04T06:08:16.678Z,100903.44
2022-08-04T06:10:46.020Z,100905.56
2022-08-04T06:13:48.055Z,100905.41
2022-08-04T06:16:06.508Z,100905.00
2022-08-04T06:19:59.695Z,100908.13
2022-08-04T06:21:26.714Z,100909.53
2022-08-04T06:24:00.736Z,100907.59
2022-08-04T06:26:34.457Z,100900.09
2022-08-04T06:29:02.672Z,100903.41
2022-08-04T06:32:27.560Z,100902.88
2022-08-04T06:34:32.469Z,100901.56
2022-08-04T06:37:00.235Z,100900.00
2022-08-04T06:39:29.489Z,100899.50
2022-08-04T06:42:16.942Z,100905.41
2022-08-04T06:44:45.602Z,100889.47
2022-08-04T06:47:13.918Z,100887.03
2022-08-04T06:49:44.157Z,100888.69
2022-08-04T06:52:28.231Z,100887.97
2022-08-04T06:54:55.585Z,100885.06
2022-08-04T06:57:24.842Z,100885.16
2022-08-04T06:59:57.622Z,100880.16
2022-08-04T07:02:30.189Z,100883.97
2022-08-04T07:04:57.312Z,100882.44
2022-08-04T07:07:36.746Z,100878.31
2022-08-04T07:10:04.413Z,100885.31
2022-08-04T07:12:34.788Z,100876.63
2022-08-04T07:15:01.489Z,100884.41
2022-08-04T07:17:34.712Z,100884.28
2022-08-04T07:20:02.274Z,100879.97
2022-08-04T07:22:28.957Z,100876.94
2022-08-04T07:24:56.813Z,100877.81
2022-08-04T07:27:47.869Z,100882.88
2022-08-04T07:30:11.345Z,100879.66
2022-08-04T07:32:38.542Z,100868.38
2022-08-04T07:35:07.082Z,100867.34
2022-08-04T07:37:39.858Z,100874.28
2022-08-04T07:40:07.477Z,100879.16
2022-08-04T07:42:34.697Z,100867.34
2022-08-04T07:45:01.235Z,100877.59
2022-08-04T07:47:27.993Z,100859.63
2022-08-04T07:49:57.478Z,100863.31
2022-08-04T07:52:28.675Z,100860.44
2022-08-04T07:54:56.192Z,100859.28
2022-08-04T07:57:40.269Z,100858.00
2022-08-04T08:00:10.075Z,100856.19
2022-08-04T08:02:38.158Z,100848.00
2022-08-04T08:05:05.424Z,100853.91
2022-08-04T08:07:31.837Z,100850.25
2022-08-04T08:09:58.297Z,100848.94
2022-08-04T08:12:38.442Z,100847.09
2022-08-04T08:15:15.955Z,100856.41
2022-08-04T08:17:59.554Z,100848.19
2022-08-04T08:20:29.472Z,100837.69
2022-08-04T08:22:57.042Z,100843.81
2022-08-04T08:25:23.510Z,100848.94
2022-08-04T08:27:55.974Z,100844.88
2022-08-04T08:30:23.850Z,100840.19
2022-08-04T08:32:50.749Z,100841.81
2022-08-04T08:35:17.886Z,100830.75
2022-08-04T08:37:52.897Z,100837.34
2022-08-04T08:40:40.005Z,100828.69
2022-08-04T08:44:05.823Z,100828.34
2022-08-04T08:46:14.929Z,100819.53
2022-08-04T08:49:01.974Z,100825.34
2022-08-04T08:51:46.843Z,100822.69
2022-08-04T08:54:32.618Z,100824.66
2022-08-04T08:57:24.948Z,100826.81
2022-08-04T09:00:07.386Z,100814.38
2022-08-04T09:02:43.952Z,100815.81
2022-08-04T09:05:40.016Z,100814.91
2022-08-04T09:08:23.181Z,100820.53
2022-08-04T09:11:20.040Z,100814.03
2022-08-04T09:14:09.126Z,100810.31
2022-08-04T09:17:03.294Z,100806.66
2022-08-04T09:19:56.089Z,100809.16
2022-08-04T09:22:49.741Z,100799.16
2022-08-04T09:25:38.567Z,100800.06
2022-08-04T09:28:37.177Z,100796.56
2022-08-04T09:31:19.113Z,100797.75
2022-08-04T09:34:03.736Z,100801.25
2022-08-04T09:36:53.541Z,100794.78
2022-08-04T09:39:29.265Z,100795.94
2022-08-04T09:42:11.860Z,100795.47
2022-08-04T09:45:03.398Z,100792.63
2022-08-04T09:47:46.589Z,100789.28
2022-08-04T09:50:36.219Z,100788.63
2022-08-04T09:53:05.559Z,100781.38
2022-08-04T09:55:53.556Z,100783.91
2022-08-04T09:58:40.691Z,100785.41
2022-08-04T10:01:13.153Z,100779.50
2022-08-04T10:03:44.413Z,100780.84
2022-08-04T10:06:57.046Z,100782.56
2022-08-04T10:09:42.698Z,100775.28
2022-08-04T10:12:17.312Z,100769.41
2022-08-04T10:14:53.840Z,100766.84
2022-08-04T10:17:32.338Z,100768.22
2022-08-04T10:20:04.810Z,100762.78
2022-08-04T10:23:02.198Z,100765.84
2022-08-04T10:26:05.661Z,100761.06
2022-08-04T10:28:43.341Z,100759.41
2022-08-04T10:31:18.914Z,100756.16
2022-08-04T10:33:51.108Z,100759.22
2022-08-04T10:36:21.206Z,100760.06
2022-08-04T10:38:57.338Z,100757.16
2022-08-04T10:41:37.687Z,100746.94
2022-08-04T10:44:41.837Z,100749.78
2022-08-04T10:47:16.008Z,100740.13
2022-08-04T10:49:56.153Z,100742.78
2022-08-04T10:52:38.108Z,100740.75
2022-08-04T10:55:18.662Z,100731.84
2022-08-04T10:57:51.611Z,100727.13
2022-08-04T11:00:27.181Z,100728.47
2022-08-04T11:03:00.257Z,100727.00
2022-08-04T11:05:49.113Z,100723.13
2022-08-04T11:08:27.875Z,100728.84
2022-08-04T11:11:32.183Z,100723.16
2022-08-04T11:14:23.009Z,100719.50
2022-08-04T11:16:55.870Z,100724.25
2022-08-04T11:19:52.822Z,100722.75
2022-08-04T11:22:23.048Z,100721.38
2022-08-04T11:25:13.555Z,100707.25
2022-08-04T11:28:01.848Z,100709.03
2022-08-04T11:30:37.688Z,100714.16
2022-08-04T11:33:16.806Z,100714.94
2022-08-04T11:36:00.912Z,100707.19
2022-08-04T11:38:40.886Z,100701.47
2022-08-04T11:41:17.780Z,100707.00
2022-08-04T11:44:03.895Z,100705.53
2022-08-04T11:46:42.860Z,100702.22
2022-08-04T11:49:24.023Z,100709.91
2022-08-04T11:51:51.823Z,100699.38
2022-08-04T11:54:20.163Z,100702.13
2022-08-04T11:56:46.810Z,100698.50
2022-08-04T11:59:14.793Z,100691.72
2022-08-04T12:02:19.068Z,100690.66
2022-08-04T12:05:04.740Z,100699.91
2022-08-04T12:08:02.790Z,100677.75
2022-08-04T12:10:48.137Z,100679.00
2022-08-04T12:13:57.429Z,100679.38
2022-08-04T12:16:30.454Z,100670.88
2022-08-04T12:19:09.921Z,100667.13
2022-08-04T12:21:50.324Z,100671.34
2022-08-04T12:24:28.704Z,100667.88
2022-08-04T12:27:04.843Z,100658.59
2022-08-04T12:29:34.501Z,100666.88
2022-08-04T12:32:08.434Z,100662.25
2022-08-04T12:34:48.003Z,100659.69
2022-08-04T12:37:31.505Z,100658.19
2022-08-04T12:40:28.343Z,100663.78
2022-08-04T12:43:25.800Z,100656.59
2022-08-04T12:45:59.725Z,100642.72
2022-08-04T12:48:27.864Z,100637.53
2022-08-04T12:50:56.489Z,100634.63
2022-08-04T12:53:50.596Z,100643.81
2022-08-04T12:56:26.445Z,100635.19
2022-08-04T12:58:59.883Z,100636.31
2022-08-04T13:02:07.069Z,100629.44
2022-08-04T13:04:20.517Z,100636.09
2022-08-04T13:07:10.094Z,100633.31
2022-08-04T13:09:37.647Z,100619.97
2022-08-04T13:12:11.827Z,100621.31
2022-08-04T13:14:44.328Z,100615.94
2022-08-04T13:17:12.067Z,100618.63
2022-08-04T13:19:41.677Z,100613.59
2022-08-04T13:22:09.074Z,100617.72
2022-08-04T13:24:57.070Z,100609.22
2022-08-04T13:27:25.877Z,100607.16
2022-08-04T13:29:59.838Z,100607.94
2022-08-04T13:32:30.672Z,100612.59
2022-08-04T13:35:00.947Z,100606.28
2022-08-04T13:37:34.696Z,100611.66
2022-08-04T13:40:04.701Z,100598.09
2022-08-04T13:42:33.667Z,100591.06
2022-08-04T13:45:04.333Z,100585.22
2022-08-04T13:47:33.959Z,100580.22
2022-08-04T13:50:27.496Z,100579.59
2022-08-04T13:52:55.495Z,100572.94
2022-08-04T13:55:24.484Z,100572.88
2022-08-04T13:57:57.059Z,100563.84
2022-08-04T14:00:30.067Z,100566.06
2022-08-04T14:03:03.562Z,100563.41
2022-08-04T14:06:09.417Z,100552.06
2022-08-04T14:09:15.765Z,100561.03
2022-08-04T14:12:09.202Z,100552.97
2022-08-04T14:14:34.101Z,100554.72
2022-08-04T14:17:18.074Z,100555.09
2022-08-04T14:19:47.161Z,100546.97
2022-08-04T14:22:26.480Z,100549.09
2022-08-04T14:25:04.098Z,100534.44
2022-08-04T14:27:41.696Z,100540.16
2022-08-04T14:30:24.807Z,100533.91
2022-08-04T14:34:00.926Z,100540.03
2022-08-04T14:36:05.441Z,100535.81
2022-08-04T14:38:52.658Z,100537.38
2022-08-04T14:41:29.565Z,100534.28
2022-08-04T14:43:59.635Z,100535.81
2022-08-04T14:46:30.229Z,100535.88
2022-08-04T14:49:10.990Z,100541.81
2022-08-04T14:51:45.889Z,100541.28
2022-08-04T14:54:18.425Z,100538.50
2022-08-04T14:56:53.378Z,100540.03
2022-08-04T14:59:20.031Z,100544.66
2022-08-04T15:02:01.077Z,100543.78
2022-08-04T15:04:29.875Z,100548.63
2022-08-04T15:06:56.824Z,100556.41
2022-08-04T15:09:23.926Z,100570.06
2022-08-04T15:11:50.381Z,100582.97
2022-08-04T15:14:36.168Z,100583.19
2022-08-04T15:17:05.287Z,100600.84
2022-08-04T15:19:35.310Z,100600.00
2022-08-04T15:22:03.338Z,100595.38
2022-08-04T15:24:29.772Z,100597.59
2022-08-04T15:26:59.189Z,100586.88
2022-08-04T15:29:59.723Z,100585.00
2022-08-04T15:32:32.283Z,100604.69
2022-08-04T15:35:06.682Z,100619.75
2022-08-04T15:37:45.353Z,100619.28
2022-08-04T15:40:51.360Z,100628.75
2022-08-04T15:43:45.814Z,100638.91
2022-08-04T15:46:42.928Z,100631.13
2022-08-04T15:49:27.251Z,100634.31
2022-08-04T15:52:12.082Z,100642.63
2022-08-04T15:54:39.831Z,100637.19
2022-08-04T15:57:09.927Z,100652.94
2022-08-04T15:59:55.071Z,100664.81
2022-08-04T16:02:33.826Z,100698.09
2022-08-04T16:05:17.992Z,100706.84
2022-08-04T16:08:11.574Z,100752.53
2022-08-04T16:10:41.191Z,100784.53
2022-08-04T16:13:15.408Z,100861.69
2022-08-04T16:15:43.120Z,100914.69
2022-08-04T16:18:25.534Z,100958.63
2022-08-04T16:20:56.753Z,100974.97
2022-08-04T16:23:58.052Z,100983.31
2022-08-04T16:26:38.187Z,100991.25
2022-08-04T16:29:25.062Z,100967.72
2022-08-04T16:32:23.371Z,100927.81
2022-08-04T16:35:04.728Z,100892.69
2022-08-04T16:37:38.627Z,100848.97
2022-08-04T16:40:33.300Z,100866.91
2022-08-04T16:43:13.341Z,100876.53
2022-08-04T16:45:49.385Z,100853.13
2022-08-04T16:48:18.931Z,100874.66
2022-08-04T16:50:48.511Z,100864.03
2022-08-04T16:53:53.463Z,100867.59
2022-08-04T16:56:04.181Z,100852.09
2022-08-04T16:58:33.872Z,100842.00
2022-08-04T17:01:21.544Z,100826.34
2022-08-04T17:03:55.596Z,100835.28
2022-08-04T17:06:34.490Z,100832.38
2022-08-04T17:09:16.240Z,100820.34
2022-08-04T17:11:44.328Z,100815.03
2022-08-04T17:14:11.506Z,100813.38
2022-08-04T17:16:41.138Z,100811.25
2022-08-04T17:19:23.766Z,100813.91
2022-08-04T17:22:05.315Z,100781.03
2022-08-04T17:24:38.525Z,100767.56
2022-08-04T17:28:19.167Z,100758.31
2022-08-04T17:29:52.964Z,100744.25
2022-08-04T17:32:20.999Z,100753.91
2022-08-04T17:34:52.602Z,100743.28
2022-08-04T17:37:38.889Z,100768.81
2022-08-04T17:40:18.303Z,100746.81
2022-08-04T17:44:04.402Z,100749.44
2022-08-04T17:46:28.517Z,100754.50
2022-08-04T17:49:04.816Z,100734.84
2022-08-04T17:52:01.942Z,100735.69
2022-08-04T17:54:36.344Z,100751.31
2022-08-04T17:57:19.990Z,100751.56
2022-08-04T17:59:56.263Z,100760.06
2022-08-04T18:02:35.251Z,100755.19
2022-08-04T18:05:12.374Z,100759.13
2022-08-04T18:08:35.530Z,100769.03
2022-08-04T18:10:55.338Z,100759.88
2022-08-04T18:13:26.989Z,100769.09
2022-08-04T18:16:14.574Z,100772.03
2022-08-04T18:19:10.056Z,100778.50
2022-08-04T18:21:46.782Z,100790.75
2022-08-04T18:24:34.028Z,100801.00
2022-08-04T18:27:03.071Z,100804.50
2022-08-04T18:29:34.403Z,100805.41
2022-08-04T18:32:06.190Z,100810.03
2022-08-04T18:34:36.460Z,100814.81
2022-08-04T18:37:40.948Z,100819.41
2022-08-04T18:40:17.346Z,100816.97
2022-08-04T18:42:40.934Z,100830.81
2022-08-04T18:45:09.788Z,100833.91
2022-08-04T18:47:59.382Z,100834.22
2022-08-04T18:51:00.984Z,100839.63
2022-08-04T18:53:09.080Z,100839.72
2022-08-04T18:55:57.031Z,100854.50
2022-08-04T18:58:27.117Z,100857.38
2022-08-04T19:00:55.612Z,100854.63
2022-08-04T19:03:22.976Z,100862.59
2022-08-04T19:05:49.906Z,100860.97
2022-08-04T19:08:34.347Z,100872.03
2022-08-04T19:11:37.494Z,100876.09
2022-08-04T19:13:58.181Z,100884.16
2022-08-04T19:16:29.587Z,100884.53
2022-08-04T19:18:57.150Z,100892.56
2022-08-04T19:22:00.006Z,100895.16
2022-08-04T19:24:32.963Z,100894.31
2022-08-04T19:26:58.847Z,100900.72
2022-08-04T19:29:25.269Z,100908.31
2022-08-04T19:32:05.238Z,100900.44
2022-08-04T19:34:42.478Z,100899.47
2022-08-04T19:37:20.383Z,100903.53
2022-08-04T19:39:59.999Z,100912.41
2022-08-04T19:42:26.749Z,100923.69
2022-08-04T19:44:53.524Z,100920.19
2022-08-04T19:48:21.578Z,100922.94
2022-08-04T19:50:10.530Z,100924.63
2022-08-04T19:52:38.074Z,100927.28
2022-08-04T19:55:10.587Z,100926.00
2022-08-04T19:57:43.797Z,100937.03
2022-08-04T20:00:17.653Z,100941.56
2022-08-04T20:03:00.285Z,100948.25
2022-08-04T20:05:54.416Z,100943.72
2022-08-04T20:08:13.590Z,100937.88
2022-08-04T20:10:51.234Z,100936.44
2022-08-04T20:13:18.261Z,100930.38
2022-08-04T20:15:55.511Z,100938.53
2022-08-04T20:18:36.457Z,100948.38
2022-08-04T20:21:18.914Z,100942.16
2022-08-04T20:23:48.703Z,100942.06
2022-08-04T20:26:16.845Z,100933.53
2022-08-04T20:28:45.960Z,100948.06
2022-08-04T20:31:18.311Z,100954.94
2022-08-04T20:33:53.826Z,100943.56
2022-08-04T20:36:22.634Z,100954.25
2022-08-04T20:38:52.808Z,100957.69
2022-08-04T20:41:20.682Z,100962.03
2022-08-04T20:43:49.898Z,100957.03
2022-08-04T20:46:28.476Z,100961.25
2022-08-04T20:48:56.627Z,100958.84
2022-08-04T20:51:28.931Z,100964.06
2022-08-04T20:53:58.814Z,100951.66
2022-08-04T20:56:31.277Z,100940.38
2022-08-04T20:58:59.489Z,100943.91
2022-08-04T21:01:27.188Z,100950.41
2022-08-04T21:04:15.459Z,100946.22
2022-08-04T21:06:55.612Z,100949.03
2022-08-04T21:09:36.970Z,100950.00
2022-08-04T21:12:04.918Z,100957.44
2022-08-04T21:14:31.364Z,100959.53
2022-08-04T21:16:58.478Z,100959.72
2022-08-04T21:19:28.946Z,100963.72
2022-08-04T21:21:58.126Z,100966.81
2022-08-04T21:24:26.551Z,100969.19
2022-08-04T21:26:56.526Z,100967.38
2022-08-04T21:29:29.595Z,100962.88
2022-08-04T21:32:07.732Z,100950.16
2022-08-04T21:34:39.293Z,100960.91
2022-08-04T21:37:09.404Z,100960.22
2022-08-04T21:39:50.022Z,100968.59
2022-08-04T21:42:28.677Z,100968.06
2022-08-04T21:44:56.529Z,100967.84
2022-08-04T21:47:46.361Z,100961.84
2022-08-04T21:50:09.493Z,100963.22
2022-08-04T21:52:35.895Z,100958.09
2022-08-04T21:55:02.790Z,100958.94
2022-08-04T21:57:30.001Z,100957.72
2022-08-04T21:59:58.679Z,100956.31
2022-08-04T22:02:26.410Z,100957.72
2022-08-04T22:04:53.982Z,100954.16
2022-08-04T22:07:23.254Z,100945.16
2022-08-04T22:10:02.589Z,100955.16
2022-08-04T22:12:30.323Z,100961.19
2022-08-04T22:14:59.750Z,100968.00
2022-08-04T22:17:35.256Z,100971.50
2022-08-04T22:20:02.542Z,100973.53
2022-08-04T22:22:29.874Z,100976.34
2022-08-04T22:25:01.486Z,100983.81
2022-08-04T22:27:47.316Z,100990.41
2022-08-04T22:30:17.740Z,100972.94
2022-08-04T22:32:48.211Z,100970.28
2022-08-04T22:35:36.314Z,100976.00
2022-08-04T22:38:06.334Z,100976.25
2022-08-04T22:40:47.675Z,100974.69
2022-08-04T22:43:31.710Z,100981.00
2022-08-04T22:46:02.000Z,100984.56
2022-08-04T22:48:32.078Z,100988.06
2022-08-04T22:50:59.526Z,100981.78
2022-08-04T22:53:25.944Z,100985.91
2022-08-04T22:56:06.694Z,100995.63
2022-08-04T22:58:40.236Z,100994.97
2022-08-04T23:01:08.402Z,100990.09
2022-08-04T23:03:37.696Z,101001.81
2022-08-04T23:06:11.048Z,101000.00
2022-08-04T23:08:39.160Z,100998.38
2022-08-04T23:11:10.662Z,101003.41
2022-08-04T23:13:37.681Z,101012.16
2022-08-04T23:16:09.816Z,101013.16
2022-08-04T23:18:36.880Z,100994.19
2022-08-04T23:21:09.872Z,100996.91
2022-08-04T23:23:37.139Z,100999.47
2022-08-04T23:26:15.575Z,100995.59
2022-08-04T23:28:43.251Z,100985.84
2022-08-04T23:31:10.219Z,100991.25
2022-08-04T23:33:49.368Z,101002.47
2022-08-04T23:36:30.023Z,101001.78
2022-08-04T23:39:04.044Z,101013.31
2022-08-04T23:41:53.451Z,101020.31
2022-08-04T23:44:24.423Z,101029.63
2022-08-04T23:47:03.936Z,101027.28
2022-08-04T23:49:44.351Z,101024.34
2022-08-04T23:52:23.362Z,101029.34
2022-08-04T23:54:54.848Z,101032.81
2022-08-04T23:57:22.115Z,101035.06
2022-08-04T23:59:54.179Z,101039.75
